sensor_id;sensor_type;location;lat;lon;timestamp;noise_LAeq;noise_LA_min;noise_LA_max;noise_LA01;noise_LA95
46393;Laerm;32099;53.588;10.176;2023-02-01T00:01:09;44.01;36.97;53.96;;
46393;Laerm;32099;53.588;10.176;2023-02-01T00:03:34;41.41;37.16;50.91;;
46393;Laerm;32099;53.588;10.176;2023-02-01T00:06:00;43.01;37.57;58.39;;
46393;Laerm;32099;53.588;10.176;2023-02-01T00:08:25;48.66;41.14;68.59;;
46393;Laerm;32099;53.588;10.176;2023-02-01T00:10:58;48.27;40.53;54.43;;
46393;Laerm;32099;53.588;10.176;2023-02-01T00:13:24;52.13;44.32;61.19;;
46393;Laerm;32099;53.588;10.176;2023-02-01T00:15:49;46.06;39.89;55.87;;
46393;Laerm;32099;53.588;10.176;2023-02-01T00:18:14;45.24;39.48;59.79;;
46393;Laerm;32099;53.588;10.176;2023-02-01T00:20:45;48.12;38.77;61.35;;
46393;Laerm;32099;53.588;10.176;2023-02-01T00:23:10;46.59;40.32;59.48;;
46393;Laerm;32099;53.588;10.176;2023-02-01T00:25:36;43.33;38.71;59.97;;
46393;Laerm;32099;53.588;10.176;2023-02-01T00:28:01;40.04;36.09;56.86;;
46393;Laerm;32099;53.588;10.176;2023-02-01T00:30:26;38.94;34.88;53.52;;
46393;Laerm;32099;53.588;10.176;2023-02-01T00:32:51;39.28;35.88;49.26;;
46393;Laerm;32099;53.588;10.176;2023-02-01T00:35:17;38.98;35.16;55.80;;
46393;Laerm;32099;53.588;10.176;2023-02-01T00:37:42;40.45;35.94;61.91;;
46393;Laerm;32099;53.588;10.176;2023-02-01T00:40:08;39.84;36.29;52.64;;
46393;Laerm;32099;53.588;10.176;2023-02-01T00:42:33;43.23;37.97;58.81;;
46393;Laerm;32099;53.588;10.176;2023-02-01T00:44:58;45.12;39.44;53.54;;
46393;Laerm;32099;53.588;10.176;2023-02-01T00:47:24;45.52;37.87;64.20;;
46393;Laerm;32099;53.588;10.176;2023-02-01T00:49:49;44.11;37.30;52.84;;
46393;Laerm;32099;53.588;10.176;2023-02-01T00:52:14;40.52;36.64;47.76;;
46393;Laerm;32099;53.588;10.176;2023-02-01T00:54:40;41.46;38.05;45.51;;
46393;Laerm;32099;53.588;10.176;2023-02-01T00:57:05;40.79;35.99;52.89;;
46393;Laerm;32099;53.588;10.176;2023-02-01T00:59:30;40.05;35.44;49.07;;
46393;Laerm;32099;53.588;10.176;2023-02-01T01:01:55;40.32;36.18;53.21;;
46393;Laerm;32099;53.588;10.176;2023-02-01T01:04:21;39.93;36.46;48.20;;
46393;Laerm;32099;53.588;10.176;2023-02-01T01:06:46;41.62;36.13;55.19;;
46393;Laerm;32099;53.588;10.176;2023-02-01T01:09:11;41.04;35.59;56.81;;
46393;Laerm;32099;53.588;10.176;2023-02-01T01:11:37;38.36;34.67;50.04;;
46393;Laerm;32099;53.588;10.176;2023-02-01T01:14:05;37.98;35.19;45.63;;
46393;Laerm;32099;53.588;10.176;2023-02-01T01:16:32;44.60;37.31;70.21;;
46393;Laerm;32099;53.588;10.176;2023-02-01T01:18:57;39.40;35.64;49.19;;
46393;Laerm;32099;53.588;10.176;2023-02-01T01:21:23;40.81;36.10;48.08;;
46393;Laerm;32099;53.588;10.176;2023-02-01T01:23:49;40.64;36.07;52.57;;
46393;Laerm;32099;53.588;10.176;2023-02-01T01:26:17;39.96;35.84;57.19;;
46393;Laerm;32099;53.588;10.176;2023-02-01T01:28:43;39.16;34.94;55.87;;
46393;Laerm;32099;53.588;10.176;2023-02-01T01:31:10;37.91;34.80;47.14;;
46393;Laerm;32099;53.588;10.176;2023-02-01T01:33:36;41.45;35.63;61.26;;
46393;Laerm;32099;53.588;10.176;2023-02-01T01:36:03;43.47;36.09;57.71;;
46393;Laerm;32099;53.588;10.176;2023-02-01T01:38:29;40.17;36.39;50.71;;
46393;Laerm;32099;53.588;10.176;2023-02-01T01:40:54;41.12;36.56;49.17;;
46393;Laerm;32099;53.588;10.176;2023-02-01T01:43:20;42.14;37.39;54.23;;
46393;Laerm;32099;53.588;10.176;2023-02-01T01:45:48;42.80;36.15;56.43;;
46393;Laerm;32099;53.588;10.176;2023-02-01T01:48:17;40.88;36.28;50.24;;
46393;Laerm;32099;53.588;10.176;2023-02-01T01:50:50;43.98;36.39;58.56;;
46393;Laerm;32099;53.588;10.176;2023-02-01T01:53:20;38.24;35.31;43.72;;
46393;Laerm;32099;53.588;10.176;2023-02-01T01:55:49;38.28;35.17;44.48;;
46393;Laerm;32099;53.588;10.176;2023-02-01T01:58:18;40.48;36.28;46.67;;
46393;Laerm;32099;53.588;10.176;2023-02-01T02:00:44;43.66;35.84;57.80;;
46393;Laerm;32099;53.588;10.176;2023-02-01T02:03:34;39.86;35.47;46.42;;
46393;Laerm;32099;53.588;10.176;2023-02-01T02:06:02;39.78;36.77;52.36;;
46393;Laerm;32099;53.588;10.176;2023-02-01T02:08:29;40.74;36.88;47.50;;
46393;Laerm;32099;53.588;10.176;2023-02-01T02:10:54;43.04;36.22;51.38;;
46393;Laerm;32099;53.588;10.176;2023-02-01T02:13:28;40.45;35.97;54.66;;
46393;Laerm;32099;53.588;10.176;2023-02-01T02:16:20;39.54;35.57;57.03;;
46393;Laerm;32099;53.588;10.176;2023-02-01T02:19:11;42.42;36.17;61.94;;
46393;Laerm;32099;53.588;10.176;2023-02-01T02:22:10;41.17;35.89;49.53;;
46393;Laerm;32099;53.588;10.176;2023-02-01T02:27:53;40.86;35.62;54.13;;
46393;Laerm;32099;53.588;10.176;2023-02-01T02:33:41;38.65;35.16;43.33;;
46393;Laerm;32099;53.588;10.176;2023-02-01T02:41:44;39.53;36.26;43.87;;
46393;Laerm;32099;53.588;10.176;2023-02-01T02:44:52;39.77;35.37;49.17;;
46393;Laerm;32099;53.588;10.176;2023-02-01T02:47:56;43.47;37.29;54.84;;
46393;Laerm;32099;53.588;10.176;2023-02-01T02:50:32;42.50;36.16;54.10;;
46393;Laerm;32099;53.588;10.176;2023-02-01T02:53:41;43.68;35.73;61.87;;
46393;Laerm;32099;53.588;10.176;2023-02-01T02:56:30;49.20;41.36;61.25;;
46393;Laerm;32099;53.588;10.176;2023-02-01T02:59:17;45.57;37.78;58.10;;
46393;Laerm;32099;53.588;10.176;2023-02-01T03:02:04;40.67;34.63;62.36;;
46393;Laerm;32099;53.588;10.176;2023-02-01T03:04:53;38.74;34.53;56.20;;
46393;Laerm;32099;53.588;10.176;2023-02-01T03:13:10;40.00;35.36;50.35;;
46393;Laerm;32099;53.588;10.176;2023-02-01T03:15:42;44.47;38.15;62.63;;
46393;Laerm;32099;53.588;10.176;2023-02-01T03:18:15;49.28;39.93;62.44;;
46393;Laerm;32099;53.588;10.176;2023-02-01T03:20:45;54.62;46.26;65.93;;
46393;Laerm;32099;53.588;10.176;2023-02-01T03:23:15;50.35;40.83;62.89;;
46393;Laerm;32099;53.588;10.176;2023-02-01T03:25:42;45.69;39.89;61.01;;
46393;Laerm;32099;53.588;10.176;2023-02-01T03:28:08;48.53;42.03;64.94;;
46393;Laerm;32099;53.588;10.176;2023-02-01T03:30:37;44.61;40.01;59.35;;
46393;Laerm;32099;53.588;10.176;2023-02-01T03:33:06;48.47;40.86;63.00;;
46393;Laerm;32099;53.588;10.176;2023-02-01T03:35:52;45.00;38.72;58.98;;
46393;Laerm;32099;53.588;10.176;2023-02-01T03:38:23;43.23;39.03;62.46;;
46393;Laerm;32099;53.588;10.176;2023-02-01T03:41:01;46.32;40.72;60.70;;
46393;Laerm;32099;53.588;10.176;2023-02-01T03:43:34;49.25;43.53;63.14;;
46393;Laerm;32099;53.588;10.176;2023-02-01T03:46:07;45.06;41.03;61.61;;
46393;Laerm;32099;53.588;10.176;2023-02-01T03:48:35;44.70;40.00;57.45;;
46393;Laerm;32099;53.588;10.176;2023-02-01T03:51:04;43.44;38.31;61.94;;
46393;Laerm;32099;53.588;10.176;2023-02-01T03:53:31;41.25;37.90;56.31;;
46393;Laerm;32099;53.588;10.176;2023-02-01T03:55:58;41.26;36.83;63.70;;
46393;Laerm;32099;53.588;10.176;2023-02-01T03:58:23;41.13;36.84;54.68;;
46393;Laerm;32099;53.588;10.176;2023-02-01T04:00:53;49.28;37.71;68.31;;
46393;Laerm;32099;53.588;10.176;2023-02-01T04:03:18;42.81;38.75;52.84;;
46393;Laerm;32099;53.588;10.176;2023-02-01T04:05:44;43.41;38.13;59.71;;
46393;Laerm;32099;53.588;10.176;2023-02-01T04:08:09;52.17;39.46;66.60;;
46393;Laerm;32099;53.588;10.176;2023-02-01T04:10:34;43.17;38.02;60.53;;
46393;Laerm;32099;53.588;10.176;2023-02-01T04:12:59;42.66;37.29;61.99;;
46393;Laerm;32099;53.588;10.176;2023-02-01T04:15:25;43.98;37.44;63.15;;
46393;Laerm;32099;53.588;10.176;2023-02-01T04:17:50;45.66;40.31;67.85;;
46393;Laerm;32099;53.588;10.176;2023-02-01T04:20:15;47.70;43.02;62.44;;
46393;Laerm;32099;53.588;10.176;2023-02-01T04:22:41;53.02;40.04;70.63;;
46393;Laerm;32099;53.588;10.176;2023-02-01T04:25:07;53.62;45.51;65.42;;
46393;Laerm;32099;53.588;10.176;2023-02-01T04:27:33;51.52;42.66;68.17;;
46393;Laerm;32099;53.588;10.176;2023-02-01T04:29:59;47.47;41.71;56.57;;
46393;Laerm;32099;53.588;10.176;2023-02-01T04:32:24;47.93;41.24;65.05;;
46393;Laerm;32099;53.588;10.176;2023-02-01T04:34:49;45.31;41.58;60.48;;
46393;Laerm;32099;53.588;10.176;2023-02-01T04:37:15;50.48;41.52;68.76;;
46393;Laerm;32099;53.588;10.176;2023-02-01T04:39:40;49.42;40.59;68.10;;
46393;Laerm;32099;53.588;10.176;2023-02-01T04:42:05;44.27;40.06;59.45;;
46393;Laerm;32099;53.588;10.176;2023-02-01T04:44:30;44.61;40.27;56.65;;
46393;Laerm;32099;53.588;10.176;2023-02-01T04:46:56;44.60;41.43;57.81;;
46393;Laerm;32099;53.588;10.176;2023-02-01T04:49:21;51.74;42.50;70.35;;
46393;Laerm;32099;53.588;10.176;2023-02-01T04:51:47;47.97;42.63;60.91;;
46393;Laerm;32099;53.588;10.176;2023-02-01T04:54:13;47.83;43.99;62.95;;
46393;Laerm;32099;53.588;10.176;2023-02-01T04:56:39;51.57;45.12;66.96;;
46393;Laerm;32099;53.588;10.176;2023-02-01T04:59:05;50.97;44.97;60.60;;
46393;Laerm;32099;53.588;10.176;2023-02-01T05:01:31;51.81;45.48;64.23;;
46393;Laerm;32099;53.588;10.176;2023-02-01T05:03:56;54.03;43.98;69.96;;
46393;Laerm;32099;53.588;10.176;2023-02-01T05:06:22;44.92;41.57;61.42;;
46393;Laerm;32099;53.588;10.176;2023-02-01T05:08:47;49.37;42.18;58.59;;
46393;Laerm;32099;53.588;10.176;2023-02-01T05:11:13;51.59;43.13;68.82;;
46393;Laerm;32099;53.588;10.176;2023-02-01T05:13:58;48.20;43.81;67.60;;
46393;Laerm;32099;53.588;10.176;2023-02-01T05:16:23;52.86;45.79;72.96;;
46393;Laerm;32099;53.588;10.176;2023-02-01T05:18:48;49.81;44.04;57.54;;
46393;Laerm;32099;53.588;10.176;2023-02-01T05:21:14;50.47;43.61;69.08;;
46393;Laerm;32099;53.588;10.176;2023-02-01T05:23:39;47.50;44.04;60.10;;
46393;Laerm;32099;53.588;10.176;2023-02-01T05:26:24;50.36;44.76;59.02;;
46393;Laerm;32099;53.588;10.176;2023-02-01T05:28:49;50.45;41.97;66.34;;
46393;Laerm;32099;53.588;10.176;2023-02-01T05:31:15;45.19;41.14;53.75;;
46393;Laerm;32099;53.588;10.176;2023-02-01T05:33:40;50.44;42.79;69.04;;
46393;Laerm;32099;53.588;10.176;2023-02-01T05:36:06;54.03;44.30;71.33;;
46393;Laerm;32099;53.588;10.176;2023-02-01T05:38:31;49.53;41.24;66.57;;
46393;Laerm;32099;53.588;10.176;2023-02-01T05:40:57;52.22;39.95;70.13;;
46393;Laerm;32099;53.588;10.176;2023-02-01T05:43:22;43.28;40.02;49.35;;
46393;Laerm;32099;53.588;10.176;2023-02-01T05:45:47;44.63;40.58;58.56;;
46393;Laerm;32099;53.588;10.176;2023-02-01T05:48:13;50.22;43.67;62.10;;
46393;Laerm;32099;53.588;10.176;2023-02-01T05:50:38;55.05;48.64;69.25;;
46393;Laerm;32099;53.588;10.176;2023-02-01T05:53:03;58.04;50.04;65.15;;
46393;Laerm;32099;53.588;10.176;2023-02-01T05:55:28;58.63;51.25;72.70;;
46393;Laerm;32099;53.588;10.176;2023-02-01T05:57:54;55.07;48.93;64.05;;
46393;Laerm;32099;53.588;10.176;2023-02-01T06:00:19;55.46;47.47;72.13;;
46393;Laerm;32099;53.588;10.176;2023-02-01T06:02:45;54.20;46.85;73.29;;
46393;Laerm;32099;53.588;10.176;2023-02-01T06:05:10;49.09;43.63;63.49;;
46393;Laerm;32099;53.588;10.176;2023-02-01T06:07:35;45.84;41.94;57.29;;
46393;Laerm;32099;53.588;10.176;2023-02-01T06:10:00;51.82;42.93;70.12;;
46393;Laerm;32099;53.588;10.176;2023-02-01T06:12:26;51.51;41.19;68.18;;
46393;Laerm;32099;53.588;10.176;2023-02-01T06:14:53;46.84;41.22;59.09;;
46393;Laerm;32099;53.588;10.176;2023-02-01T06:17:18;50.98;41.34;66.66;;
46393;Laerm;32099;53.588;10.176;2023-02-01T06:19:43;50.12;42.51;68.16;;
46393;Laerm;32099;53.588;10.176;2023-02-01T06:22:09;45.13;41.69;55.44;;
46393;Laerm;32099;53.588;10.176;2023-02-01T06:24:35;46.41;42.46;58.18;;
46393;Laerm;32099;53.588;10.176;2023-02-01T06:27:00;55.23;41.26;70.29;;
46393;Laerm;32099;53.588;10.176;2023-02-01T06:29:25;45.08;40.98;64.12;;
46393;Laerm;32099;53.588;10.176;2023-02-01T06:31:51;54.22;40.99;70.05;;
46393;Laerm;32099;53.588;10.176;2023-02-01T06:34:17;53.55;41.21;74.20;;
46393;Laerm;32099;53.588;10.176;2023-02-01T06:36:43;49.44;40.45;66.50;;
46393;Laerm;32099;53.588;10.176;2023-02-01T06:39:08;52.34;40.95;82.00;;
46393;Laerm;32099;53.588;10.176;2023-02-01T06:41:33;52.78;41.75;70.20;;
46393;Laerm;32099;53.588;10.176;2023-02-01T06:43:59;53.32;42.52;68.15;;
46393;Laerm;32099;53.588;10.176;2023-02-01T06:46:25;57.45;41.74;69.61;;
46393;Laerm;32099;53.588;10.176;2023-02-01T06:48:50;52.82;41.42;72.21;;
46393;Laerm;32099;53.588;10.176;2023-02-01T06:51:26;57.29;42.74;72.02;;
46393;Laerm;32099;53.588;10.176;2023-02-01T06:53:53;52.26;41.04;69.49;;
46393;Laerm;32099;53.588;10.176;2023-02-01T06:56:18;51.92;40.99;67.76;;
46393;Laerm;32099;53.588;10.176;2023-02-01T06:58:44;53.24;41.32;69.76;;
46393;Laerm;32099;53.588;10.176;2023-02-01T07:01:10;44.17;40.56;57.99;;
46393;Laerm;32099;53.588;10.176;2023-02-01T07:03:36;43.93;40.48;58.96;;
46393;Laerm;32099;53.588;10.176;2023-02-01T07:06:01;55.20;39.95;71.56;;
46393;Laerm;32099;53.588;10.176;2023-02-01T07:08:27;52.77;41.23;70.31;;
46393;Laerm;32099;53.588;10.176;2023-02-01T07:10:53;45.25;41.04;56.15;;
46393;Laerm;32099;53.588;10.176;2023-02-01T07:13:18;57.84;41.60;71.44;;
46393;Laerm;32099;53.588;10.176;2023-02-01T07:15:43;53.20;42.00;70.78;;
46393;Laerm;32099;53.588;10.176;2023-02-01T07:18:09;61.09;42.14;90.03;;
46393;Laerm;32099;53.588;10.176;2023-02-01T07:20:34;57.27;42.59;74.31;;
46393;Laerm;32099;53.588;10.176;2023-02-01T07:22:59;50.60;42.26;66.40;;
46393;Laerm;32099;53.588;10.176;2023-02-01T07:25:25;58.39;42.29;76.78;;
46393;Laerm;32099;53.588;10.176;2023-02-01T07:27:50;54.92;40.83;70.25;;
46393;Laerm;32099;53.588;10.176;2023-02-01T07:30:15;56.69;42.82;73.12;;
46393;Laerm;32099;53.588;10.176;2023-02-01T07:32:41;53.40;42.52;71.44;;
46393;Laerm;32099;53.588;10.176;2023-02-01T07:35:06;57.17;41.26;71.98;;
46393;Laerm;32099;53.588;10.176;2023-02-01T07:37:31;56.23;42.33;72.26;;
46393;Laerm;32099;53.588;10.176;2023-02-01T07:39:57;54.71;41.84;70.43;;
46393;Laerm;32099;53.588;10.176;2023-02-01T07:42:22;56.21;42.40;77.00;;
46393;Laerm;32099;53.588;10.176;2023-02-01T07:44:47;46.77;41.69;62.08;;
46393;Laerm;32099;53.588;10.176;2023-02-01T07:47:12;56.11;41.88;71.27;;
46393;Laerm;32099;53.588;10.176;2023-02-01T07:49:38;57.86;40.99;75.11;;
46393;Laerm;32099;53.588;10.176;2023-02-01T07:52:03;58.21;46.48;70.91;;
46393;Laerm;32099;53.588;10.176;2023-02-01T07:54:28;54.66;45.42;73.88;;
46393;Laerm;32099;53.588;10.176;2023-02-01T07:56:54;59.94;45.15;74.21;;
46393;Laerm;32099;53.588;10.176;2023-02-01T07:59:19;56.90;44.66;67.02;;
46393;Laerm;32099;53.588;10.176;2023-02-01T08:01:44;55.94;43.90;70.22;;
46393;Laerm;32099;53.588;10.176;2023-02-01T08:04:11;49.52;43.16;60.92;;
46393;Laerm;32099;53.588;10.176;2023-02-01T08:06:38;55.97;43.79;69.71;;
46393;Laerm;32099;53.588;10.176;2023-02-01T08:09:04;56.85;42.66;74.31;;
46393;Laerm;32099;53.588;10.176;2023-02-01T08:11:30;51.36;41.87;69.23;;
46393;Laerm;32099;53.588;10.176;2023-02-01T08:13:55;44.83;41.31;59.48;;
46393;Laerm;32099;53.588;10.176;2023-02-01T08:16:22;58.46;42.05;71.43;;
46393;Laerm;32099;53.588;10.176;2023-02-01T08:18:49;44.78;41.17;55.85;;
46393;Laerm;32099;53.588;10.176;2023-02-01T08:21:18;56.34;41.21;71.46;;
46393;Laerm;32099;53.588;10.176;2023-02-01T08:23:43;44.95;40.85;55.42;;
46393;Laerm;32099;53.588;10.176;2023-02-01T08:26:20;56.73;41.07;73.42;;
46393;Laerm;32099;53.588;10.176;2023-02-01T08:28:48;46.58;41.09;57.56;;
46393;Laerm;32099;53.588;10.176;2023-02-01T08:31:18;55.06;41.46;73.02;;
46393;Laerm;32099;53.588;10.176;2023-02-01T08:33:48;45.87;40.83;60.05;;
46393;Laerm;32099;53.588;10.176;2023-02-01T08:36:13;55.45;40.51;72.54;;
46393;Laerm;32099;53.588;10.176;2023-02-01T08:38:39;44.56;41.64;53.19;;
46393;Laerm;32099;53.588;10.176;2023-02-01T08:41:06;53.21;41.39;69.16;;
46393;Laerm;32099;53.588;10.176;2023-02-01T08:43:32;56.00;42.89;73.46;;
46393;Laerm;32099;53.588;10.176;2023-02-01T08:45:57;54.51;43.62;77.52;;
46393;Laerm;32099;53.588;10.176;2023-02-01T08:48:22;49.37;44.45;65.40;;
46393;Laerm;32099;53.588;10.176;2023-02-01T08:50:48;50.08;45.06;60.98;;
46393;Laerm;32099;53.588;10.176;2023-02-01T08:53:13;52.56;46.25;63.62;;
46393;Laerm;32099;53.588;10.176;2023-02-01T08:55:39;52.05;44.89;66.87;;
46393;Laerm;32099;53.588;10.176;2023-02-01T08:58:04;48.24;43.58;57.64;;
46393;Laerm;32099;53.588;10.176;2023-02-01T09:00:29;55.90;44.19;72.63;;
46393;Laerm;32099;53.588;10.176;2023-02-01T09:02:55;52.73;43.01;69.19;;
46393;Laerm;32099;53.588;10.176;2023-02-01T09:05:20;53.91;42.48;73.21;;
46393;Laerm;32099;53.588;10.176;2023-02-01T09:07:47;59.42;43.16;74.88;;
46393;Laerm;32099;53.588;10.176;2023-02-01T09:10:12;54.64;43.03;69.74;;
46393;Laerm;32099;53.588;10.176;2023-02-01T09:12:37;55.36;42.08;71.70;;
46393;Laerm;32099;53.588;10.176;2023-02-01T09:15:03;50.51;43.13;66.23;;
46393;Laerm;32099;53.588;10.176;2023-02-01T09:17:31;54.73;42.49;71.51;;
46393;Laerm;32099;53.588;10.176;2023-02-01T09:19:56;55.23;42.34;71.28;;
46393;Laerm;32099;53.588;10.176;2023-02-01T09:22:21;56.33;44.07;72.84;;
46393;Laerm;32099;53.588;10.176;2023-02-01T09:24:47;53.29;43.01;71.05;;
46393;Laerm;32099;53.588;10.176;2023-02-01T09:27:12;54.90;43.15;71.50;;
46393;Laerm;32099;53.588;10.176;2023-02-01T09:29:37;55.20;44.11;74.94;;
46393;Laerm;32099;53.588;10.176;2023-02-01T09:32:02;52.09;44.84;68.24;;
46393;Laerm;32099;53.588;10.176;2023-02-01T09:34:28;55.53;45.18;70.72;;
46393;Laerm;32099;53.588;10.176;2023-02-01T09:36:54;50.96;43.78;67.53;;
46393;Laerm;32099;53.588;10.176;2023-02-01T09:39:19;53.50;43.63;70.33;;
46393;Laerm;32099;53.588;10.176;2023-02-01T09:42:16;50.42;43.95;65.38;;
46393;Laerm;32099;53.588;10.176;2023-02-01T09:44:53;54.82;44.60;71.64;;
46393;Laerm;32099;53.588;10.176;2023-02-01T09:47:23;55.57;44.25;75.47;;
46393;Laerm;32099;53.588;10.176;2023-02-01T09:49:57;53.13;44.26;66.53;;
46393;Laerm;32099;53.588;10.176;2023-02-01T09:52:35;52.00;44.09;69.17;;
46393;Laerm;32099;53.588;10.176;2023-02-01T09:55:06;53.52;44.18;70.31;;
46393;Laerm;32099;53.588;10.176;2023-02-01T09:58:02;55.90;41.96;71.30;;
46393;Laerm;32099;53.588;10.176;2023-02-01T10:00:33;54.23;40.97;72.74;;
46393;Laerm;32099;53.588;10.176;2023-02-01T10:02:59;56.50;40.42;70.30;;
46393;Laerm;32099;53.588;10.176;2023-02-01T10:05:58;49.51;42.46;57.35;;
46393;Laerm;32099;53.588;10.176;2023-02-01T10:11:23;53.62;42.95;71.63;;
46393;Laerm;32099;53.588;10.176;2023-02-01T10:14:08;46.77;40.86;62.82;;
46393;Laerm;32099;53.588;10.176;2023-02-01T10:16:53;47.29;43.14;59.27;;
46393;Laerm;32099;53.588;10.176;2023-02-01T10:19:45;53.94;42.76;76.71;;
46393;Laerm;32099;53.588;10.176;2023-02-01T10:22:31;53.57;42.71;72.03;;
46393;Laerm;32099;53.588;10.176;2023-02-01T10:25:13;47.21;42.37;55.41;;
46393;Laerm;32099;53.588;10.176;2023-02-01T10:27:39;58.11;42.49;73.11;;
46393;Laerm;32099;53.588;10.176;2023-02-01T10:30:18;53.06;42.86;68.66;;
46393;Laerm;32099;53.588;10.176;2023-02-01T10:32:44;53.62;43.68;70.16;;
46393;Laerm;32099;53.588;10.176;2023-02-01T10:35:12;54.59;45.68;70.73;;
46393;Laerm;32099;53.588;10.176;2023-02-01T10:37:41;57.91;45.95;73.37;;
46393;Laerm;32099;53.588;10.176;2023-02-01T10:40:19;51.63;42.74;66.31;;
46393;Laerm;32099;53.588;10.176;2023-02-01T10:42:47;46.57;42.25;55.36;;
46393;Laerm;32099;53.588;10.176;2023-02-01T10:45:20;46.84;42.66;62.15;;
46393;Laerm;32099;53.588;10.176;2023-02-01T10:47:49;54.42;42.58;68.90;;
46393;Laerm;32099;53.588;10.176;2023-02-01T10:50:23;55.21;43.96;73.79;;
46393;Laerm;32099;53.588;10.176;2023-02-01T10:52:59;51.97;44.27;70.90;;
46393;Laerm;32099;53.588;10.176;2023-02-01T10:58:16;58.16;42.70;75.65;;
46393;Laerm;32099;53.588;10.176;2023-02-01T11:06:27;55.15;44.27;71.62;;
46393;Laerm;32099;53.588;10.176;2023-02-01T11:08:58;54.12;42.33;73.88;;
46393;Laerm;32099;53.588;10.176;2023-02-01T11:11:24;58.30;42.59;72.82;;
46393;Laerm;32099;53.588;10.176;2023-02-01T11:13:56;59.09;51.22;68.74;;
46393;Laerm;32099;53.588;10.176;2023-02-01T11:16:35;64.91;49.52;78.57;;
46393;Laerm;32099;53.588;10.176;2023-02-01T11:19:02;72.43;52.65;83.74;;
46393;Laerm;32099;53.588;10.176;2023-02-01T11:21:27;74.54;50.01;90.32;;
46393;Laerm;32099;53.588;10.176;2023-02-01T11:23:53;60.01;46.78;79.43;;
46393;Laerm;32099;53.588;10.176;2023-02-01T11:26:24;57.34;46.14;72.97;;
46393;Laerm;32099;53.588;10.176;2023-02-01T11:28:54;55.26;45.96;72.18;;
46393;Laerm;32099;53.588;10.176;2023-02-01T11:31:22;56.26;45.22;75.11;;
46393;Laerm;32099;53.588;10.176;2023-02-01T11:33:52;56.00;48.46;69.56;;
46393;Laerm;32099;53.588;10.176;2023-02-01T11:36:22;54.30;44.81;71.27;;
46393;Laerm;32099;53.588;10.176;2023-02-01T11:41:54;47.29;42.93;63.29;;
46393;Laerm;32099;53.588;10.176;2023-02-01T11:44:29;47.05;42.86;59.82;;
46393;Laerm;32099;53.588;10.176;2023-02-01T11:46:55;56.87;44.03;71.36;;
46393;Laerm;32099;53.588;10.176;2023-02-01T11:49:27;58.59;43.79;76.14;;
46393;Laerm;32099;53.588;10.176;2023-02-01T11:57:39;53.77;44.10;72.94;;
46393;Laerm;32099;53.588;10.176;2023-02-01T12:00:18;50.96;42.70;66.57;;
46393;Laerm;32099;53.588;10.176;2023-02-01T12:08:35;53.69;42.45;71.96;;
46393;Laerm;32099;53.588;10.176;2023-02-01T12:14:17;58.05;41.44;72.20;;
46393;Laerm;32099;53.588;10.176;2023-02-01T12:17:05;55.34;43.39;76.00;;
46393;Laerm;32099;53.588;10.176;2023-02-01T12:22:39;57.87;44.17;72.71;;
46393;Laerm;32099;53.588;10.176;2023-02-01T12:30:46;57.04;46.17;73.71;;
46393;Laerm;32099;53.588;10.176;2023-02-01T12:33:22;58.34;45.47;72.17;;
46393;Laerm;32099;53.588;10.176;2023-02-01T12:38:42;53.59;44.61;69.05;;
46393;Laerm;32099;53.588;10.176;2023-02-01T12:44:32;51.47;47.03;62.65;;
46393;Laerm;32099;53.588;10.176;2023-02-01T12:50:38;52.66;46.17;67.63;;
46393;Laerm;32099;53.588;10.176;2023-02-01T12:56:51;57.49;44.62;75.01;;
46393;Laerm;32099;53.588;10.176;2023-02-01T13:02:59;49.89;42.74;65.38;;
46393;Laerm;32099;53.588;10.176;2023-02-01T13:11:10;57.77;44.45;83.99;;
46393;Laerm;32099;53.588;10.176;2023-02-01T13:14:01;46.39;42.75;63.15;;
46393;Laerm;32099;53.588;10.176;2023-02-01T13:16:41;51.85;43.05;69.61;;
46393;Laerm;32099;53.588;10.176;2023-02-01T13:19:17;55.12;41.44;73.27;;
46393;Laerm;32099;53.588;10.176;2023-02-01T13:21:48;48.67;42.03;62.00;;
46393;Laerm;32099;53.588;10.176;2023-02-01T13:24:31;51.85;42.34;68.92;;
46393;Laerm;32099;53.588;10.176;2023-02-01T13:26:57;53.24;42.11;73.81;;
46393;Laerm;32099;53.588;10.176;2023-02-01T13:29:24;52.98;43.23;72.15;;
46393;Laerm;32099;53.588;10.176;2023-02-01T13:34:50;52.39;44.15;67.64;;
46393;Laerm;32099;53.588;10.176;2023-02-01T13:38:00;58.49;41.53;75.82;;
46393;Laerm;32099;53.588;10.176;2023-02-01T13:43:31;54.40;41.04;70.75;;
46393;Laerm;32099;53.588;10.176;2023-02-01T13:46:04;55.37;44.62;74.24;;
46393;Laerm;32099;53.588;10.176;2023-02-01T13:48:41;52.40;43.98;68.35;;
46393;Laerm;32099;53.588;10.176;2023-02-01T13:51:12;50.88;43.47;65.93;;
46393;Laerm;32099;53.588;10.176;2023-02-01T13:53:44;53.25;41.80;69.53;;
46393;Laerm;32099;53.588;10.176;2023-02-01T13:56:16;58.37;47.97;76.87;;
46393;Laerm;32099;53.588;10.176;2023-02-01T13:58:44;57.39;44.26;74.79;;
46393;Laerm;32099;53.588;10.176;2023-02-01T14:06:34;57.22;47.99;72.02;;
46393;Laerm;32099;53.588;10.176;2023-02-01T15:18:30;49.32;42.04;68.63;;
46393;Laerm;32099;53.588;10.176;2023-02-01T15:20:57;48.96;41.29;68.03;;
46393;Laerm;32099;53.588;10.176;2023-02-01T15:23:23;48.91;41.97;67.38;;
46393;Laerm;32099;53.588;10.176;2023-02-01T15:25:48;47.55;41.58;68.88;;
46393;Laerm;32099;53.588;10.176;2023-02-01T15:28:15;58.86;41.94;72.93;;
46393;Laerm;32099;53.588;10.176;2023-02-01T15:31:04;44.52;41.02;58.69;;
46393;Laerm;32099;53.588;10.176;2023-02-01T15:33:31;56.88;41.04;71.63;;
46393;Laerm;32099;53.588;10.176;2023-02-01T15:38:43;56.19;41.72;82.36;;
46393;Laerm;32099;53.588;10.176;2023-02-01T15:41:12;61.64;42.41;75.14;;
46393;Laerm;32099;53.588;10.176;2023-02-01T15:46:23;45.44;41.66;51.24;;
46393;Laerm;32099;53.588;10.176;2023-02-01T15:48:54;63.56;42.73;79.37;;
46393;Laerm;32099;53.588;10.176;2023-02-01T15:51:24;54.63;43.08;70.87;;
46393;Laerm;32099;53.588;10.176;2023-02-01T15:53:55;51.63;45.62;70.78;;
46393;Laerm;32099;53.588;10.176;2023-02-01T15:56:23;51.70;41.65;70.41;;
46393;Laerm;32099;53.588;10.176;2023-02-01T15:58:53;49.90;43.12;73.52;;
46393;Laerm;32099;53.588;10.176;2023-02-01T16:01:19;56.48;42.07;72.81;;
46393;Laerm;32099;53.588;10.176;2023-02-01T16:03:45;51.90;45.59;68.17;;
46393;Laerm;32099;53.588;10.176;2023-02-01T16:09:13;55.37;40.98;72.48;;
46393;Laerm;32099;53.588;10.176;2023-02-01T16:12:02;46.09;41.30;67.22;;
46393;Laerm;32099;53.588;10.176;2023-02-01T16:14:26;54.55;42.12;69.29;;
46393;Laerm;32099;53.588;10.176;2023-02-01T16:16:53;58.22;41.80;72.22;;
46393;Laerm;32099;53.588;10.176;2023-02-01T16:19:19;49.87;40.96;65.24;;
46393;Laerm;32099;53.588;10.176;2023-02-01T16:21:45;50.56;40.99;70.06;;
46393;Laerm;32099;53.588;10.176;2023-02-01T16:24:11;53.46;40.75;72.96;;
46393;Laerm;32099;53.588;10.176;2023-02-01T16:26:36;48.82;41.37;70.45;;
46393;Laerm;32099;53.588;10.176;2023-02-01T16:29:03;52.10;40.35;69.15;;
46393;Laerm;32099;53.588;10.176;2023-02-01T16:31:34;52.71;40.11;69.61;;